.
WxDataArchive / Data Records for 2009-11-05
2009-11-04 November 2009 2009-11-06

Data Records for Thursday, 05 November 2009

Time	Temp	Chill	HIndex	Humid	Dewpt	 Wind 	HiWind	WindDir	Rain 	Barom 
-----	----	-----	------	-----	-----	------	------	-------	-----	----- 
00:00	42.6	42.6	42.6	79	36.6	0	0	---	0.00	30.173 
00:05	42.6	42.6	42.6	80	36.9	0	0	---	0.00	30.173 
00:10	42.6	42.6	42.6	80	36.9	0	0	---	0.00	30.173 
00:15	42.6	42.6	42.6	79	36.6	0	0	---	0.00	30.168 
00:20	42.5	42.5	42.5	80	36.8	0	0	---	0.00	30.168 
00:25	42.3	42.3	42.3	80	36.6	0	0	---	0.00	30.168 
00:30	42.1	42.1	42.1	80	36.4	0	0	---	0.00	30.170 
00:35	41.8	41.8	41.8	80	36.1	0	0	---	0.00	30.170 
00:40	41.3	41.3	41.3	80	35.6	0	0	---	0.00	30.170 
00:45	41.1	41.1	41.1	81	35.7	0	0	---	0.00	30.170 
00:50	40.5	40.5	40.5	82	35.4	0	0	---	0.00	30.170 
00:55	40.1	40.1	40.1	83	35.4	0	0	---	0.00	30.170 
01:00	39.8	39.8	39.8	84	35.4	0	0	---	0.00	30.174 
01:05	39.5	39.5	39.5	84	35.1	0	0	---	0.00	30.174 
01:10	39.2	39.2	39.2	84	34.8	0	0	---	0.00	30.174 
01:15	38.8	38.8	38.8	84	34.4	0	0	---	0.00	30.177 
01:20	38.5	38.5	38.5	85	34.4	0	0	---	0.00	30.177 
01:25	38.2	38.2	38.2	85	34.1	0	0	---	0.00	30.177 
01:30	37.9	37.9	37.9	86	34.1	0	0	---	0.00	30.185 
01:35	37.8	37.8	37.8	87	34.3	0	0	---	0.00	30.185 
01:40	38.2	38.2	38.2	87	34.7	0	1	90	0.00	30.185 
01:45	38.8	38.8	38.8	86	35.0	0	1	90	0.00	30.192 
01:50	39.1	39.1	39.1	85	35.0	0	1	90	0.00	30.192 
01:55	39.2	39.2	39.2	84	34.8	0	1	90	0.00	30.192 
02:00	39.3	39.3	39.3	84	34.9	0	1	68	0.00	30.201 
02:05	39.3	39.3	39.3	83	34.6	0	1	68	0.00	30.201 
02:10	39.3	39.3	39.3	83	34.6	0	0	---	0.00	30.201 
02:15	39.2	39.2	39.2	83	34.5	0	0	---	0.00	30.199 
02:20	39.1	39.1	39.1	83	34.4	0	0	---	0.00	30.199 
02:25	38.9	38.9	38.9	83	34.2	0	1	68	0.00	30.199 
02:30	38.8	38.8	38.8	83	34.1	0	0	---	0.00	30.201 
02:35	38.8	38.8	38.8	83	34.1	0	1	68	0.00	30.201 
02:40	38.6	38.6	38.6	83	33.9	0	0	---	0.00	30.201 
02:45	38.6	38.6	38.6	83	33.9	0	0	---	0.00	30.205 
02:50	38.5	38.5	38.5	83	33.8	0	0	---	0.00	30.205 
02:55	38.2	38.2	38.2	83	33.5	0	0	---	0.00	30.205 
03:00	38.0	38.0	38.0	84	33.6	0	0	---	0.00	30.214 
03:05	37.9	37.9	37.9	84	33.5	0	1	68	0.00	30.214 
03:10	37.8	37.8	37.8	84	33.4	0	1	68	0.00	30.214 
03:15	37.8	37.8	37.8	84	33.4	0	1	68	0.00	30.221 
03:20	37.9	37.9	37.9	85	33.8	0	1	68	0.00	30.221 
03:25	37.9	37.9	37.9	85	33.8	0	1	68	0.00	30.221 
03:30	37.9	37.9	37.9	85	33.8	0	1	68	0.00	30.224 
03:35	37.9	37.9	37.9	85	33.8	0	1	68	0.00	30.224 
03:40	38.0	38.0	38.0	85	33.9	0	1	68	0.00	30.224 
03:45	37.9	37.9	37.9	85	33.8	0	1	68	0.00	30.233 
03:50	38.0	38.0	38.0	85	33.9	0	1	68	0.00	30.233 
03:55	38.0	38.0	38.0	86	34.2	0	1	68	0.00	30.233 
04:00	38.2	38.2	38.2	86	34.4	0	1	68	0.00	30.236 
04:05	38.3	38.3	38.3	86	34.5	0	1	68	0.00	30.236 
04:10	38.6	38.6	38.6	86	34.8	0	1	68	0.00	30.236 
04:15	39.1	39.1	39.1	86	35.3	0	2	68	0.00	30.236 
04:20	39.5	39.5	39.5	85	35.4	0	2	0	0.00	30.236 
04:25	39.6	39.6	39.6	84	35.2	0	2	0	0.00	30.236 
04:30	39.6	39.6	39.6	83	34.9	0	1	0	0.00	30.237 
04:35	39.5	39.5	39.5	83	34.8	0	1	0	0.00	30.237 
04:40	39.5	39.5	39.5	84	35.1	0	1	0	0.00	30.237 
04:45	39.3	39.3	39.3	84	34.9	0	2	0	0.00	30.244 
04:50	39.5	39.5	39.5	84	35.1	0	2	0	0.00	30.244 
04:55	39.5	39.5	39.5	84	35.1	0	1	0	0.00	30.244 
05:00	39.6	39.6	39.6	84	35.2	0	1	0	0.00	30.252 
05:05	39.6	39.6	39.6	84	35.2	0	1	0	0.00	30.252 
05:10	39.6	39.6	39.6	84	35.2	0	1	0	0.00	30.252 
05:15	39.5	39.5	39.5	84	35.1	0	1	338	0.00	30.256 
05:20	39.5	39.5	39.5	85	35.4	0	1	338	0.00	30.256 
05:25	39.5	39.5	39.5	85	35.4	0	1	338	0.00	30.256 
05:30	39.6	39.6	39.6	85	35.5	0	1	338	0.00	30.262 
05:35	39.8	39.8	39.8	86	36.0	0	2	338	0.00	30.262 
05:40	39.8	39.8	39.8	86	36.0	0	1	338	0.00	30.262 
05:45	39.6	39.6	39.6	85	35.5	0	1	338	0.00	30.268 
05:50	39.5	39.5	39.5	85	35.4	0	1	338	0.00	30.268 
05:55	39.3	39.3	39.3	86	35.5	0	2	338	0.00	30.268 
06:00	39.2	39.2	39.2	86	35.4	0	1	338	0.00	30.272 
06:05	39.2	39.2	39.2	86	35.4	0	1	338	0.00	30.272 
06:10	39.1	39.1	39.1	86	35.3	0	1	338	0.00	30.272 
06:15	39.1	39.1	39.1	87	35.6	0	1	338	0.00	30.278 
06:20	38.9	38.9	38.9	87	35.4	0	0	---	0.00	30.278 
06:25	38.8	38.8	38.8	86	35.0	0	0	---	0.00	30.278 
06:30	38.5	38.5	38.5	87	35.0	0	0	---	0.00	30.274 
06:35	38.2	38.2	38.2	87	34.7	0	0	---	0.00	30.274 
06:40	37.9	37.9	37.9	87	34.4	0	0	---	0.00	30.274 
06:45	37.6	37.6	37.6	87	34.1	0	0	---	0.00	30.287 
06:50	37.3	37.3	37.3	88	34.1	0	1	338	0.00	30.287 
06:55	37.6	37.6	37.6	89	34.7	0	1	338	0.00	30.287 
07:00	37.8	37.8	37.8	89	34.9	0	1	338	0.00	30.290 
07:05	37.8	37.8	37.8	88	34.6	0	0	---	0.00	30.290 
07:10	37.6	37.6	37.6	88	34.4	0	0	---	0.00	30.290 
07:15	37.3	37.3	37.3	88	34.1	0	0	---	0.00	30.292 
07:20	37.2	37.2	37.2	88	34.0	0	0	---	0.00	30.292 
07:25	37.2	37.2	37.2	88	34.0	0	1	338	0.00	30.292 
07:30	37.0	37.0	37.0	88	33.8	0	1	338	0.00	30.299 
07:35	37.0	37.0	37.0	88	33.8	0	0	---	0.00	30.299 
07:40	37.2	37.2	37.2	88	34.0	0	1	338	0.00	30.299 
07:45	37.3	37.3	37.3	87	33.8	0	1	338	0.00	30.304 
07:50	37.6	37.6	37.6	85	33.5	0	1	338	0.00	30.304 
07:55	37.6	37.6	37.6	84	33.2	0	0	---	0.00	30.304 
08:00	37.8	37.8	37.8	84	33.4	0	0	---	0.00	30.304 
08:05	37.9	37.9	37.9	83	33.2	0	0	---	0.00	30.304 
08:10	38.2	38.2	38.2	82	33.2	0	0	---	0.00	30.304 
08:15	38.5	38.5	38.5	81	33.2	0	1	338	0.00	30.306 
08:20	38.9	38.9	38.9	81	33.6	0	1	338	0.00	30.306 
08:25	39.3	39.3	39.3	80	33.7	0	1	338	0.00	30.306 
08:30	39.8	39.8	39.8	79	33.8	0	1	315	0.00	30.305 
08:35	40.2	40.2	40.2	78	33.9	0	2	292	0.00	30.305 
08:40	40.8	40.8	40.8	77	34.2	0	2	292	0.00	30.305 
08:45	41.2	41.2	41.2	76	34.2	1	2	292	0.00	30.310 
08:50	41.5	41.5	41.5	75	34.2	0	3	270	0.00	30.310 
08:55	41.9	41.9	41.9	74	34.2	1	4	248	0.00	30.310 
09:00	42.3	42.3	42.3	72	33.9	1	4	248	0.00	30.317 
09:05	42.6	42.6	42.6	70	33.5	2	4	315	0.00	30.317 
09:10	42.9	42.9	42.9	69	33.4	2	5	270	0.00	30.317 
09:15	43.2	43.2	43.2	68	33.4	3	5	270	0.00	30.319 
09:20	43.3	43.3	43.3	67	33.1	2	4	270	0.00	30.319 
09:25	43.6	43.6	43.6	68	33.7	1	3	270	0.00	30.319 
09:30	43.9	43.9	43.9	68	34.0	2	4	270	0.00	30.322 
09:35	44.1	44.1	44.1	66	33.5	2	5	248	0.00	30.322 
09:40	44.2	44.2	44.2	67	33.9	2	5	248	0.00	30.322 
09:45	44.5	44.5	44.5	66	33.9	2	4	270	0.00	30.326 
09:50	44.6	44.6	44.6	65	33.6	2	5	270	0.00	30.326 
09:55	44.6	44.6	44.6	66	34.0	3	6	315	0.00	30.326 
10:00	44.8	44.8	44.8	65	33.8	2	5	315	0.00	30.329 
10:05	45.1	45.1	45.1	66	34.4	2	5	270	0.00	30.329 
10:10	45.2	45.2	45.2	65	34.1	3	7	270	0.00	30.329 
10:15	45.4	45.4	45.4	65	34.3	2	6	315	0.00	30.332 
10:20	45.7	45.7	45.7	64	34.2	3	5	270	0.00	30.332 
10:25	45.8	45.8	45.8	64	34.3	3	7	270	0.00	30.332 
10:30	46.1	46.1	46.1	65	35.0	3	5	292	0.00	30.335 
10:35	46.4	46.4	46.4	64	34.9	2	7	270	0.00	30.335 
10:40	46.5	46.5	46.5	63	34.6	3	5	270	0.00	30.335 
10:45	46.7	46.7	46.7	62	34.4	3	10	270	0.00	30.334 
10:50	46.8	46.8	46.8	63	34.9	3	5	292	0.00	30.334 
10:55	47.1	47.1	47.1	60	33.9	3	7	248	0.00	30.334 
11:00	47.4	45.9	47.4	60	34.2	4	10	270	0.00	30.334 
11:05	47.6	47.6	47.6	60	34.4	3	6	248	0.00	30.334 
11:10	47.7	47.7	47.7	57	33.2	3	6	270	0.00	30.334 
11:15	47.7	47.7	47.7	54	31.9	3	6	270	0.00	30.334 
11:20	48.0	46.6	48.0	58	33.9	4	9	270	0.00	30.334 
11:25	48.3	48.3	48.3	57	33.8	3	9	270	0.00	30.334 
11:30	48.5	47.1	48.5	56	33.5	4	10	270	0.00	30.330 
11:35	48.8	48.8	48.8	56	33.8	3	6	270	0.00	30.330 
11:40	48.9	47.6	48.9	55	33.5	4	6	270	0.00	30.330 
11:45	49.1	47.8	49.1	54	33.2	4	11	270	0.00	30.329 
11:50	49.4	48.2	49.4	54	33.5	4	10	270	0.00	30.329 
11:55	49.5	49.5	49.5	56	34.5	3	7	270	0.00	30.329 
12:00	49.9	49.9	49.9	54	33.9	3	6	270	0.00	30.330 
12:05	50.2	50.2	50.2	52	33.3	3	6	292	0.00	30.330 
12:10	50.5	50.5	50.5	52	33.5	3	6	248	0.00	30.330 
12:15	50.5	50.5	50.5	52	33.5	3	6	270	0.00	30.330 
12:20	50.5	50.5	50.5	51	33.1	2	6	248	0.00	30.330 
12:25	50.7	50.7	50.7	52	33.7	2	9	270	0.00	30.330 
12:30	50.8	50.8	50.8	51	33.3	3	7	270	0.00	30.326 
12:35	51.0	51.0	51.0	49	32.5	3	6	270	0.00	30.326 
12:40	51.1	51.1	51.1	50	33.1	3	7	270	0.00	30.326 
12:45	51.3	51.3	51.3	49	32.8	3	7	270	0.00	30.318 
12:50	51.4	51.4	51.4	49	32.9	3	6	270	0.00	30.318 
12:55	51.6	51.6	51.6	49	33.1	2	5	270	0.00	30.318 
13:00	51.6	51.6	51.6	47	32.0	3	5	315	0.00	30.313 
13:05	51.6	51.6	51.6	48	32.6	3	6	292	0.00	30.313 
13:10	51.7	51.7	51.7	47	32.1	3	7	248	0.00	30.313 
13:15	51.7	51.7	51.7	48	32.6	3	5	270	0.00	30.311 
13:20	52.0	52.0	52.0	47	32.4	3	7	292	0.00	30.311 
13:25	52.2	52.2	52.2	47	32.6	3	10	270	0.00	30.311 
13:30	52.3	52.3	52.3	48	33.2	2	4	270	0.00	30.312 
13:35	52.6	52.6	52.6	46	32.4	2	4	315	0.00	30.312 
13:40	52.5	52.5	52.5	45	31.8	3	6	292	0.00	30.312 
13:45	52.2	52.2	52.2	46	32.1	2	5	315	0.00	30.308 
13:50	52.6	52.6	52.6	46	32.4	3	9	270	0.00	30.308 
13:55	52.6	52.6	52.6	45	31.9	3	6	248	0.00	30.308 
14:00	52.3	52.3	52.3	44	31.0	4	10	292	0.00	30.305 
14:05	52.6	52.6	52.6	43	30.7	3	9	270	0.00	30.305 
14:10	52.8	52.8	52.8	45	32.1	2	4	270	0.00	30.305 
14:15	53.1	53.1	53.1	43	31.2	3	6	292	0.00	30.305 
14:20	52.8	52.8	52.8	43	30.9	3	8	315	0.00	30.305 
14:25	52.5	52.5	52.5	44	31.2	2	5	315	0.00	30.305 
14:30	52.0	52.0	52.0	43	30.2	2	6	270	0.00	30.299 
14:35	52.0	52.0	52.0	43	30.2	3	6	270	0.00	30.299 
14:40	52.0	52.0	52.0	43	30.2	3	6	270	0.00	30.299 
14:45	52.0	52.0	52.0	43	30.2	3	7	315	0.00	30.298 
14:50	52.2	52.2	52.2	43	30.4	3	7	315	0.00	30.298 
14:55	52.3	52.3	52.3	44	31.0	3	6	270	0.00	30.298 
15:00	52.5	52.5	52.5	44	31.2	3	7	270	0.00	30.296 
15:05	52.0	52.0	52.0	43	30.2	3	7	270	0.00	30.296 
15:10	52.0	52.0	52.0	43	30.2	4	7	270	0.00	30.296 
15:15	52.3	52.3	52.3	41	29.3	3	7	270	0.00	30.292 
15:20	52.5	52.5	52.5	43	30.7	3	6	270	0.00	30.292 
15:25	52.6	52.6	52.6	40	29.0	3	6	292	0.00	30.292 
15:30	52.6	52.6	52.6	40	29.0	2	5	292	0.00	30.290 
15:35	52.6	52.6	52.6	39	28.4	3	7	292	0.00	30.290 
15:40	52.5	52.5	52.5	40	28.9	3	10	270	0.00	30.290 
15:45	52.5	52.5	52.5	41	29.5	2	5	270	0.00	30.286 
15:50	52.6	52.6	52.6	39	28.4	4	10	270	0.00	30.286 
15:55	52.6	52.6	52.6	41	29.6	3	6	270	0.00	30.286 
16:00	52.6	52.6	52.6	40	29.0	3	5	270	0.00	30.291 
16:05	52.6	52.6	52.6	40	29.0	2	10	270	0.00	30.291 
16:10	52.6	52.6	52.6	41	29.6	2	5	338	0.00	30.291 
16:15	52.5	52.5	52.5	40	28.9	2	5	270	0.00	30.292 
16:20	52.5	52.5	52.5	40	28.9	2	4	292	0.00	30.292 
16:25	52.3	52.3	52.3	39	28.1	2	4	270	0.00	30.292 
16:30	52.3	52.3	52.3	39	28.1	2	4	270	0.00	30.295 
16:35	52.2	52.2	52.2	39	28.0	1	4	315	0.00	30.295 
16:40	52.0	52.0	52.0	39	27.8	1	4	270	0.00	30.295 
16:45	51.9	51.9	51.9	38	27.1	2	4	270	0.00	30.297 
16:50	51.7	51.7	51.7	39	27.6	1	3	292	0.00	30.297 
16:55	51.6	51.6	51.6	38	26.8	1	3	292	0.00	30.297 
17:00	51.4	51.4	51.4	39	27.3	1	4	270	0.00	30.298 
17:05	51.1	51.1	51.1	38	26.4	1	3	270	0.00	30.298 
17:10	51.1	51.1	51.1	37	25.7	2	4	270	0.00	30.298 
17:15	51.0	51.0	51.0	37	25.7	1	4	270	0.00	30.298 
17:20	50.7	50.7	50.7	38	26.0	0	2	270	0.00	30.298 
17:25	50.4	50.4	50.4	39	26.4	0	1	270	0.00	30.298 
17:30	50.1	50.1	50.1	39	26.1	0	1	270	0.00	30.302 
17:35	49.6	49.6	49.6	40	26.3	0	1	270	0.00	30.302 
17:40	49.4	49.4	49.4	41	26.7	0	1	270	0.00	30.302 
17:45	48.9	48.9	48.9	42	26.8	0	0	---	0.00	30.305 
17:50	48.6	48.6	48.6	42	26.6	0	0	---	0.00	30.305 
17:55	48.2	48.2	48.2	43	26.8	0	0	---	0.00	30.305 
18:00	47.7	47.7	47.7	44	26.9	0	0	---	0.00	30.307 
18:05	47.1	47.1	47.1	45	26.9	0	0	---	0.00	30.307 
18:10	46.5	46.5	46.5	45	26.3	0	0	---	0.00	30.307 
18:15	46.1	46.1	46.1	47	27.0	0	0	---	0.00	30.317 
18:20	45.4	45.4	45.4	48	26.9	0	0	---	0.00	30.317 
18:25	44.6	44.6	44.6	50	27.1	0	0	---	0.00	30.317 
18:30	44.1	44.1	44.1	51	27.1	0	0	---	0.00	30.321 
18:35	43.5	43.5	43.5	53	27.5	0	0	---	0.00	30.321 
18:40	42.9	42.9	42.9	54	27.4	0	0	---	0.00	30.321 
18:45	42.5	42.5	42.5	55	27.5	0	0	---	0.00	30.324 
18:50	42.1	42.1	42.1	56	27.5	0	0	---	0.00	30.324 
18:55	41.6	41.6	41.6	57	27.5	0	0	---	0.00	30.324 
19:00	41.2	41.2	41.2	58	27.6	0	0	---	0.00	30.326 
19:05	40.8	40.8	40.8	59	27.6	0	0	---	0.00	30.326 
19:10	40.3	40.3	40.3	59	27.1	0	0	---	0.00	30.326 
19:15	39.9	39.9	39.9	61	27.6	0	0	---	0.00	30.327 
19:20	39.6	39.6	39.6	62	27.7	0	0	---	0.00	30.327 
19:25	39.3	39.3	39.3	63	27.8	0	0	---	0.00	30.327 
19:30	39.1	39.1	39.1	63	27.6	0	0	---	0.00	30.330 
19:35	38.6	38.6	38.6	64	27.5	0	0	---	0.00	30.330 
19:40	38.3	38.3	38.3	64	27.2	0	0	---	0.00	30.330 
19:45	38.2	38.2	38.2	66	27.9	0	0	---	0.00	30.334 
19:50	37.9	37.9	37.9	67	27.9	0	0	---	0.00	30.334 
19:55	37.8	37.8	37.8	68	28.2	0	0	---	0.00	30.334 
20:00	37.6	37.6	37.6	68	28.0	0	0	---	0.00	30.331 
20:05	37.5	37.5	37.5	68	27.9	0	0	---	0.00	30.331 
20:10	37.2	37.2	37.2	69	28.0	0	0	---	0.00	30.331 
20:15	37.0	37.0	37.0	69	27.8	0	0	---	0.00	30.333 
20:20	37.0	37.0	37.0	69	27.8	0	0	---	0.00	30.333 
20:25	36.8	36.8	36.8	70	27.9	0	0	---	0.00	30.333 
20:30	36.6	36.6	36.6	71	28.1	0	0	---	0.00	30.334 
20:35	36.5	36.5	36.5	71	28.0	0	0	---	0.00	30.334 
20:40	36.2	36.2	36.2	72	28.1	0	0	---	0.00	30.334 
20:45	36.0	36.0	36.0	72	27.9	0	0	---	0.00	30.337 
20:50	35.9	35.9	35.9	73	28.1	0	0	---	0.00	30.337 
20:55	35.8	35.8	35.8	73	28.0	0	0	---	0.00	30.337 
21:00	35.6	35.6	35.6	74	28.1	0	0	---	0.00	30.337 
21:05	35.5	35.5	35.5	75	28.4	0	0	---	0.00	30.337 
21:10	35.2	35.2	35.2	75	28.1	0	0	---	0.00	30.337 
21:15	35.0	35.0	35.0	75	27.9	0	0	---	0.00	30.338 
21:20	34.9	34.9	34.9	76	28.1	0	0	---	0.00	30.338 
21:25	34.7	34.7	34.7	76	27.9	0	0	---	0.00	30.338 
21:30	34.6	34.6	34.6	77	28.1	0	0	---	0.00	30.338 
21:35	34.4	34.4	34.4	77	27.9	0	0	---	0.00	30.338 
21:40	34.1	34.1	34.1	78	28.0	0	0	---	0.00	30.338 
21:45	34.0	34.0	34.0	78	27.9	0	0	---	0.00	30.342 
21:50	33.8	33.8	33.8	78	27.7	0	0	---	0.00	30.342 
21:55	33.8	33.8	33.8	79	28.0	0	0	---	0.00	30.342 
22:00	33.7	33.7	33.7	79	27.9	0	0	---	0.00	30.343 
22:05	33.5	33.5	33.5	79	27.7	0	0	---	0.00	30.343 
22:10	33.4	33.4	33.4	80	27.9	0	0	---	0.00	30.343 
22:15	33.2	33.2	33.2	80	27.7	0	0	---	0.00	30.340 
22:20	33.1	33.1	33.1	81	27.9	0	0	---	0.00	30.340 
22:25	32.9	32.9	32.9	81	27.7	0	0	---	0.00	30.340 
22:30	32.8	32.8	32.8	81	27.6	0	0	---	0.00	30.340 
22:35	32.7	32.7	32.7	82	27.8	0	0	---	0.00	30.340 
22:40	32.5	32.5	32.5	82	27.6	0	0	---	0.00	30.340 
22:45	32.4	32.4	32.4	82	27.5	0	0	---	0.00	30.340 
22:50	32.4	32.4	32.4	83	27.8	0	0	---	0.00	30.340 
22:55	32.2	32.2	32.2	83	27.6	0	0	---	0.00	30.340 
23:00	32.2	32.2	32.2	84	27.9	0	0	---	0.00	30.340 
23:05	32.1	32.1	32.1	84	27.8	0	0	---	0.00	30.340 
23:10	32.1	32.1	32.1	84	27.8	0	0	---	0.00	30.340 
23:15	31.9	31.9	31.9	84	27.6	0	0	---	0.00	30.332 
23:20	31.9	31.9	31.9	84	27.6	0	0	---	0.00	30.332 
23:25	31.8	31.8	31.8	84	27.5	0	0	---	0.00	30.332 
23:30	31.8	31.8	31.8	85	27.8	0	0	---	0.00	30.329 
23:35	31.8	31.8	31.8	85	27.8	0	0	---	0.00	30.329 
23:40	31.8	31.8	31.8	85	27.8	0	0	---	0.00	30.329 
23:45	31.6	31.6	31.6	85	27.6	0	0	---	0.00	30.334 
23:50	31.5	31.5	31.5	85	27.5	0	0	---	0.00	30.334 
23:55	31.3	31.3	31.3	85	27.3	0	0	---	0.00	30.334 

CoCoRaHS
IN-AL-39
A2 Web Hosting
Creative Commons License
GoDaddy
search engine by freefind advanced

loaded 2018-11-13 21:17:03 • last modified 2010-11-18 10:43:29
Privacy PolicyDisclaimer
• wx.awcolley.com is powered by PmWiki v.2002016 •
• all content (unless otherwise noted) © 2018 A W Colley